Time;durP1;ratioP1;P1;durP2;ratioP2;P2;SDS_P1;SDS_P2;PMS_P1;PMS_P2;Temp;Humidity;BMP_temperature;BMP_pressure;BME280_temperature;BME280_humidity;BME280_pressure;Samples;Min_cycle;Max_cycle;Signal;HPM_P1;HPM_P2
2022/09/02 00:01:40;;;;;;;1999.90;999.90;;;;;;;12.71;100.00;94445.97;4920022;29;20183;-61
2022/09/02 00:04:08;;;;;;;1999.90;999.90;;;;;;;12.68;100.00;94438.66;4935822;29;20195;-61
2022/09/02 00:06:35;;;;;;;1999.90;999.90;;;;;;;12.64;100.00;94436.03;4920261;29;20180;-60
2022/09/02 00:09:02;;;;;;;1999.90;999.90;;;;;;;12.58;100.00;94434.28;4919885;29;20196;-60
2022/09/02 00:11:30;;;;;;;1999.90;999.90;;;;;;;12.52;100.00;94425.84;4919806;29;20212;-61
2022/09/02 00:13:56;;;;;;;1999.90;999.90;;;;;;;12.49;100.00;94423.22;4919783;29;20192;-60
2022/09/02 00:16:23;;;;;;;1999.90;999.90;;;;;;;12.47;100.00;94412.72;4936112;29;20266;-60
2022/09/02 00:18:50;;;;;;;1999.90;999.90;;;;;;;12.45;100.00;94398.69;4936044;29;20202;-60
2022/09/02 00:21:17;;;;;;;1999.90;999.90;;;;;;;12.44;100.00;94394.44;4935960;29;20197;-61
2022/09/02 00:23:44;;;;;;;1999.90;999.90;;;;;;;12.42;100.00;94401.56;4919852;29;20190;-61
2022/09/02 00:26:11;;;;;;;1999.90;999.90;;;;;;;12.37;100.00;94393.88;4919667;29;20184;-62
2022/09/02 00:28:37;;;;;;;1999.90;999.90;;;;;;;12.32;100.00;94397.16;4919770;29;20263;-60
2022/09/02 00:31:02;;;;;;;1999.90;999.90;;;;;;;12.28;100.00;94393.78;4919327;29;20303;-60
2022/09/02 00:33:30;;;;;;;1999.90;999.90;;;;;;;12.25;100.00;94395.41;4920291;29;20304;-60
2022/09/02 00:35:59;;;;;;;1999.90;999.90;;;;;;;12.24;100.00;94398.59;4919597;29;20197;-60
2022/09/02 00:38:25;;;;;;;1999.90;999.90;;;;;;;12.21;100.00;94394.00;4935372;29;20194;-60
2022/09/02 00:40:50;;;;;;;1999.90;999.90;;;;;;;12.21;100.00;94394.00;4919499;29;20201;-61
2022/09/02 00:43:38;;;;;;;1999.90;999.90;;;;;;;12.18;100.00;94387.44;4919278;29;20193;-60
2022/09/02 00:46:04;;;;;;;1999.90;999.90;;;;;;;12.18;100.00;94381.19;4919504;29;20191;-60
2022/09/02 00:48:30;;;;;;;1999.90;999.90;;;;;;;12.16;100.00;94380.84;4919308;29;20213;-61
2022/09/02 00:50:56;;;;;;;1999.90;999.90;;;;;;;12.13;100.00;94381.72;4919325;29;20217;-60
2022/09/02 00:53:21;;;;;;;1999.90;999.90;;;;;;;12.12;100.00;94370.00;4937396;29;20196;-59
2022/09/02 00:55:49;;;;;;;1999.90;999.90;;;;;;;12.07;100.00;94370.56;4923118;29;20195;-60
2022/09/02 00:58:19;;;;;;;1999.90;999.90;;;;;;;12.03;100.00;94360.94;4922798;29;20187;-60
2022/09/02 01:00:46;;;;;;;1999.90;999.90;;;;;;;12.00;100.00;94351.63;4922715;29;20191;-60
2022/09/02 01:03:15;;;;;;;1999.90;999.90;;;;;;;11.98;100.00;94326.66;4922699;29;20249;-60
2022/09/02 01:05:44;;;;;;;1999.90;999.90;;;;;;;11.93;100.00;94329.94;4938455;29;20208;-60
2022/09/02 01:08:14;;;;;;;1999.90;999.90;;;;;;;11.94;100.00;94323.28;4922807;29;20308;-60
2022/09/02 01:10:41;;;;;;;1999.90;999.90;;;;;;;11.94;100.00;94306.06;4922962;29;20276;-60
2022/09/02 01:13:11;;;;;;;1999.90;999.90;;;;;;;11.93;100.00;94302.59;4922761;29;20224;-60
2022/09/02 01:15:42;;;;;;;1999.90;999.90;;;;;;;11.89;100.00;94280.06;4922588;29;20214;-60
2022/09/02 01:18:09;;;;;;;1999.90;999.90;;;;;;;11.86;100.00;94280.16;4938578;29;20182;-60
2022/09/02 01:20:35;;;;;;;1999.90;999.90;;;;;;;11.84;100.00;94260.69;4922336;29;20285;-60
2022/09/02 01:23:01;;;;;;;1999.90;999.90;;;;;;;11.83;100.00;94246.22;4922704;29;20226;-60
2022/09/02 01:25:30;;;;;;;1999.90;999.90;;;;;;;11.84;100.00;94244.28;4922226;29;20186;-60
2022/09/02 01:28:05;;;;;;;1999.90;999.90;;;;;;;11.78;100.00;94240.53;4922139;29;20227;-61
2022/09/02 01:30:32;;;;;;;1999.90;999.90;;;;;;;11.79;100.00;94231.13;4921876;29;20210;-61
2022/09/02 01:32:58;;;;;;;1999.90;999.90;;;;;;;11.80;100.00;94232.69;4921975;29;20190;-61
2022/09/02 01:35:24;;;;;;;1999.90;999.90;;;;;;;11.78;100.00;94224.13;4921926;29;20197;-61
2022/09/02 01:37:54;;;;;;;1999.90;999.90;;;;;;;11.77;100.00;94200.72;4922091;29;20194;-60
2022/09/02 01:40:19;;;;;;;1999.90;999.90;;;;;;;11.79;100.00;94199.09;4921827;29;20198;-60
2022/09/02 01:42:45;;;;;;;1999.90;999.90;;;;;;;11.77;100.00;94196.00;4921698;29;20195;-60
2022/09/02 01:45:10;;;;;;;1999.90;999.90;;;;;;;11.78;100.00;94191.31;4921827;29;20221;-60
2022/09/02 01:47:36;;;;;;;1999.90;999.90;;;;;;;11.75;100.00;94181.25;4921910;29;20198;-60
2022/09/02 01:50:04;;;;;;;1999.90;999.90;;;;;;;11.70;100.00;94184.56;4921772;29;20305;-60
2022/09/02 01:52:29;;;;;;;1999.90;999.90;;;;;;;11.66;100.00;94178.44;4922050;29;20357;-60
2022/09/02 01:54:56;;;;;;;1999.90;999.90;;;;;;;11.68;100.00;94181.47;4921564;29;20261;-60
2022/09/02 01:57:23;;;;;;;1999.90;999.90;;;;;;;11.61;100.00;94174.28;4921777;29;20205;-60
2022/09/02 01:59:52;;;;;;;1999.90;999.90;;;;;;;11.61;100.00;94165.28;4921680;29;20194;-60
2022/09/02 02:02:19;;;;;;;1999.90;999.90;;;;;;;11.60;100.00;94161.00;4921569;29;20194;-61
2022/09/02 02:04:45;;;;;;;1999.90;999.90;;;;;;;11.59;100.00;94162.22;4920029;29;20193;-61
2022/09/02 02:07:14;;;;;;;1999.90;999.90;;;;;;;11.55;100.00;94150.63;4937192;29;20191;-60
2022/09/02 02:09:41;;;;;;;1999.90;999.90;;;;;;;11.52;100.00;94152.28;4921793;29;20218;-60
2022/09/02 02:12:07;;;;;;;1999.90;999.90;;;;;;;11.48;100.00;94150.84;4921660;29;20284;-61
2022/09/02 02:14:32;;;;;;;1999.90;999.90;;;;;;;11.45;100.00;94151.72;4921655;29;20184;-61
2022/09/02 02:16:58;;;;;;;1999.90;999.90;;;;;;;11.41;100.00;94151.09;4921403;29;20193;-59
2022/09/02 02:19:24;;;;;;;1999.90;999.90;;;;;;;11.42;100.00;94136.19;4921600;29;20231;-60
2022/09/02 02:21:49;;;;;;;1999.90;999.90;;;;;;;11.40;100.00;94128.44;4921679;29;20193;-60
2022/09/02 02:24:15;;;;;;;1999.90;999.90;;;;;;;11.38;100.00;94121.88;4921110;29;20194;-60
2022/09/02 02:26:41;;;;;;;1999.90;999.90;;;;;;;11.36;100.00;94116.09;4921775;29;20187;-60
2022/09/02 02:29:06;;;;;;;1999.90;999.90;;;;;;;11.34;100.00;94113.03;4921974;29;20218;-60
2022/09/02 02:31:32;;;;;;;1999.90;999.90;;;;;;;11.30;100.00;94107.69;4921614;29;20211;-61
2022/09/02 02:33:58;;;;;;;1999.90;999.90;;;;;;;11.31;100.00;94108.44;4921126;29;20188;-60
2022/09/02 02:36:24;;;;;;;1999.90;999.90;;;;;;;11.31;100.00;94094.78;4921413;29;20193;-60
2022/09/02 02:38:49;;;;;;;1999.90;999.90;;;;;;;11.31;100.00;94092.03;4921437;29;20201;-60
2022/09/02 02:41:15;;;;;;;1999.90;999.90;;;;;;;11.32;100.00;94093.56;4921095;29;20198;-60
2022/09/02 02:43:40;;;;;;;1999.90;999.90;;;;;;;11.31;100.00;94092.03;4921083;29;20198;-60
2022/09/02 02:46:07;;;;;;;1999.90;999.90;;;;;;;11.30;100.00;94082.31;4921119;29;20281;-60
2022/09/02 02:48:34;;;;;;;1999.90;999.90;;;;;;;11.28;100.00;94074.56;4921563;29;20256;-61
2022/09/02 02:51:00;;;;;;;1999.90;999.90;;;;;;;11.29;100.00;94067.88;4921128;29;20213;-60
2022/09/02 02:53:28;;;;;;;1999.90;999.90;;;;;;;11.25;100.00;94072.72;4921360;29;20205;-60
2022/09/02 02:55:54;;;;;;;1999.90;999.90;;;;;;;11.19;100.00;94068.25;4920831;29;20208;-61
2022/09/02 02:58:19;;;;;;;1999.90;999.90;;;;;;;11.17;100.00;94059.69;4921647;29;20193;-60
2022/09/02 03:00:45;;;;;;;1999.90;999.90;;;;;;;11.12;100.00;94060.28;4921344;29;20296;-60
2022/09/02 03:03:11;;;;;;;1999.90;999.90;;;;;;;11.08;100.00;94056.88;4920813;29;20185;-60
2022/09/02 03:05:37;;;;;;;1999.90;999.90;;;;;;;11.07;100.00;94052.63;4920921;29;20194;-60
2022/09/02 03:08:05;;;;;;;1999.90;999.90;;;;;;;11.05;100.00;94052.28;4921012;29;20194;-60
2022/09/02 03:10:32;;;;;;;1999.90;999.90;;;;;;;11.06;100.00;94042.88;4936804;29;20217;-61
2022/09/02 03:13:01;;;;;;;1999.90;999.90;;;;;;;11.07;100.00;94047.91;4921101;29;20194;-61
2022/09/02 03:15:28;;;;;;;1999.90;999.90;;;;;;;11.06;100.00;94045.63;4920289;29;20252;-61
2022/09/02 03:17:55;;;;;;;1999.90;999.90;;;;;;;11.00;100.00;94044.66;4920860;29;20237;-60
2022/09/02 03:20:20;;;;;;;1999.90;999.90;;;;;;;10.99;100.00;94021.25;4920748;29;20226;-60
2022/09/02 03:22:47;;;;;;;1999.90;999.90;;;;;;;11.00;100.00;94017.34;4936493;29;20233;-60
2022/09/02 03:25:15;;;;;;;1999.90;999.90;;;;;;;10.97;100.00;94007.28;4920335;29;20204;-61
2022/09/02 03:27:44;;;;;;;1999.90;999.90;;;;;;;10.97;100.00;94012.75;4921024;29;20221;-60
2022/09/02 03:30:12;;;;;;;1999.90;999.90;;;;;;;10.97;100.00;94001.84;4936511;29;20229;-60
2022/09/02 03:32:38;;;;;;;1999.90;999.90;;;;;;;10.92;100.00;93999.66;4920648;29;20285;-61
2022/09/02 03:35:06;;;;;;;1999.90;999.90;;;;;;;10.95;100.00;93988.63;4920430;29;20222;-61
2022/09/02 03:37:32;;;;;;;1999.90;999.90;;;;;;;10.96;100.00;93978.47;4920481;29;20254;-61
2022/09/02 03:39:57;;;;;;;1999.90;999.90;;;;;;;10.92;100.00;93978.56;4920316;29;20281;-61
2022/09/02 03:42:23;;;;;;;1999.90;999.90;;;;;;;10.87;100.00;93975.63;4920683;29;20206;-61
2022/09/02 03:44:48;;;;;;;1999.90;999.90;;;;;;;10.86;100.00;93972.16;4920398;29;20180;-60
2022/09/02 03:47:16;;;;;;;1999.90;999.90;;;;;;;10.84;100.00;93965.56;4920233;29;20229;-60
2022/09/02 03:49:41;;;;;;;1999.90;999.90;;;;;;;10.82;100.00;93962.53;4920632;29;20305;-60
2022/09/02 03:52:07;;;;;;;1999.90;999.90;;;;;;;10.81;100.00;93961.00;4920251;29;20278;-61
2022/09/02 03:54:32;;;;;;;1999.90;999.90;;;;;;;10.81;100.00;93955.56;4920146;29;20198;-61
2022/09/02 03:56:58;;;;;;;1999.90;999.90;;;;;;;10.79;100.00;93953.25;4920322;29;20228;-61
2022/09/02 03:59:23;;;;;;;1999.90;999.90;;;;;;;10.81;100.00;93944.63;4935833;29;20189;-61
2022/09/02 04:01:50;;;;;;;1999.90;999.90;;;;;;;10.82;100.00;93940.69;4920194;29;20244;-63
2022/09/02 04:04:18;;;;;;;1999.90;999.90;;;;;;;10.80;100.00;93940.34;4920006;29;20194;-61
2022/09/02 04:06:43;;;;;;;1999.90;999.90;;;;;;;10.75;100.00;93943.66;4935848;29;20186;-61
2022/09/02 04:09:08;;;;;;;1999.90;999.90;;;;;;;10.79;100.00;93931.41;4920137;29;20249;-60
2022/09/02 04:11:34;;;;;;;1999.90;999.90;;;;;;;10.78;100.00;93924.41;4919674;29;20210;-60
2022/09/02 04:13:59;;;;;;;1999.90;999.90;;;;;;;10.76;100.00;93920.59;4919712;29;20258;-60
2022/09/02 04:23:08;;;;;;;1999.90;999.90;;;;;;;10.71;100.00;93894.59;4936762;29;20291;-60
2022/09/02 04:25:38;;;;;;;1999.90;999.90;;;;;;;10.74;100.00;93896.47;4919661;29;20198;-60
2022/09/02 04:28:03;;;;;;;1999.90;999.90;;;;;;;10.75;100.00;93880.84;4934648;29;20253;-60
2022/09/02 04:30:29;;;;;;;1999.90;999.90;;;;;;;10.78;100.00;93885.44;4919554;29;20198;-60
2022/09/02 04:32:55;;;;;;;1999.90;999.90;;;;;;;10.80;100.00;93877.53;4919926;29;20198;-61
2022/09/02 04:35:21;;;;;;;1999.90;999.90;;;;;;;10.82;100.00;93866.97;4935607;29;20277;-60
2022/09/02 04:37:47;;;;;;;1999.90;999.90;;;;;;;10.84;100.00;93867.25;4919606;29;20209;-61
2022/09/02 04:40:13;;;;;;;1999.90;999.90;;;;;;;10.85;100.00;93863.34;4935221;29;20221;-61
2022/09/02 04:42:39;;;;;;;1999.90;999.90;;;;;;;10.99;100.00;93854.66;4935327;29;20237;-61
2022/09/02 04:45:05;;;;;;;1999.90;999.90;;;;;;;11.09;100.00;93845.31;4935261;29;20245;-61
2022/09/02 04:47:30;;;;;;;1999.90;999.90;;;;;;;11.31;100.00;93829.69;4919564;29;20189;-60
2022/09/02 04:49:57;;;;;;;1999.90;999.90;;;;;;;11.49;100.00;93827.84;4919761;29;20216;-61
2022/09/02 04:52:22;;;;;;;1999.90;999.90;;;;;;;11.74;100.00;93824.22;4919253;29;20186;-61
2022/09/02 04:54:48;;;;;;;1999.90;999.90;;;;;;;12.00;100.00;93822.78;4919727;29;20202;-61
2022/09/02 04:57:13;;;;;;;1999.90;999.90;;;;;;;12.18;100.00;93836.53;4919540;29;20220;-61
2022/09/02 04:59:39;;;;;;;1999.90;999.90;;;;;;;12.43;100.00;93863.69;4919290;29;20204;-61
2022/09/02 05:02:05;;;;;;;1999.90;999.90;;;;;;;12.73;100.00;93895.72;4919472;29;20227;-62
2022/09/02 05:04:32;;;;;;;1999.90;999.90;;;;;;;13.01;100.00;93930.97;4919237;29;20235;-61
2022/09/02 05:07:00;;;;;;;1999.90;999.90;;;;;;;13.11;100.00;93975.59;4919514;29;20195;-61
2022/09/02 05:09:27;;;;;;;1999.90;999.90;;;;;;;13.47;100.00;94011.28;4918993;29;20185;-60
2022/09/02 05:11:56;;;;;;;1999.90;999.90;;;;;;;13.94;100.00;94060.25;4919493;29;20194;-61
2022/09/02 05:14:22;;;;;;;1999.90;999.90;;;;;;;14.06;100.00;94117.03;4919445;29;20186;-61
2022/09/02 05:16:51;;;;;;;1999.90;999.90;;;;;;;13.80;100.00;94176.88;4919100;29;20185;-62
2022/09/02 05:19:16;;;;;;;1999.90;999.90;;;;;;;13.91;100.00;94207.41;4934952;29;20216;-63
2022/09/02 05:21:43;;;;;;;1999.90;999.90;;;;;;;14.16;100.00;94226.38;4919086;29;20209;-62
2022/09/02 05:24:08;;;;;;;1999.90;999.90;;;;;;;14.30;100.00;94250.56;4919005;29;20275;-62
2022/09/02 05:26:34;;;;;;;1999.90;999.90;;;;;;;14.17;100.00;94271.09;4934970;29;20206;-63
2022/09/02 05:29:02;;;;;;;1999.90;999.90;;;;;;;14.33;100.00;94296.34;4919023;29;20186;-63
2022/09/02 05:31:27;;;;;;;1999.90;999.90;;;;;;;14.85;100.00;94293.38;4934774;29;20201;-62
2022/09/02 05:33:53;;;;;;;1999.90;999.90;;;;;;;15.62;100.00;94311.22;4935156;29;20194;-63
2022/09/02 05:36:21;;;;;;;1999.90;999.90;;;;;;;15.78;100.00;94333.69;4919023;29;20253;-62
2022/09/02 05:38:47;;;;;;;1999.90;999.90;;;;;;;16.26;100.00;94354.69;4919940;29;20189;-62
2022/09/02 05:41:18;;;;;;;1999.90;999.90;;;;;;;16.72;100.00;94360.00;4938172;29;20273;-62
2022/09/02 05:43:45;;;;;;;1999.90;999.90;;;;;;;17.36;100.00;94377.66;4922355;29;20200;-65
2022/09/02 05:46:16;;;;;;;1999.90;999.90;;;;;;;17.89;100.00;94386.78;4922101;29;20229;-62
2022/09/02 05:49:25;;;;;;;1999.90;999.90;;;;;;;16.88;100.00;94404.50;4938257;29;20217;-63
2022/09/02 05:51:36;;;;;;;1999.90;999.90;;;;;;;17.49;100.00;94383.75;4930973;29;20205;-63
2022/09/02 05:54:01;;;;;;;1999.90;999.90;;;;;;;17.36;100.00;94397.75;4921694;29;20234;-64
2022/09/02 05:56:27;;;;;;;1999.90;999.90;;;;;;;17.86;100.00;94384.97;4921846;29;20197;-63
2022/09/02 05:58:57;;;;;;;1999.90;999.90;;;;;;;17.41;100.00;94399.13;4921529;29;20190;-62
2022/09/02 06:01:23;;;;;;;1999.90;999.90;;;;;;;17.00;100.00;94405.53;4921672;29;20225;-62
2022/09/02 06:03:51;;;;;;;1999.90;999.90;;;;;;;17.20;100.00;94400.97;4922140;29;20190;-63
2022/09/02 06:06:17;;;;;;;1999.90;999.90;;;;;;;17.84;100.00;94385.44;4922151;29;20295;-64
2022/09/02 06:08:43;;;;;;;1999.90;999.90;;;;;;;18.54;100.00;94392.72;4921447;29;20218;-64
2022/09/02 06:11:10;;;;;;;1999.90;999.90;;;;;;;18.29;100.00;94404.31;4922097;29;20189;-62
2022/09/02 06:13:38;;;;;;;1999.90;999.90;;;;;;;18.89;100.00;94406.56;4921381;29;20200;-63
2022/09/02 06:16:05;;;;;;;1999.90;999.90;;;;;;;19.23;100.00;94403.06;4921770;29;20194;-63
2022/09/02 06:18:31;;;;;;;1999.90;999.90;;;;;;;19.61;100.00;94404.81;4921440;29;20205;-63
2022/09/02 06:20:56;;;;;;;1999.90;999.90;;;;;;;20.45;100.00;94388.59;4921346;29;20214;-63
2022/09/02 06:23:22;;;;;;;1999.90;999.90;;;;;;;20.47;100.00;94409.03;4921706;29;20337;-64
2022/09/02 06:25:48;;;;;;;1999.90;999.90;;;;;;;21.18;100.00;94472.75;4921665;29;20198;-65
2022/09/02 06:28:14;;;;;;;1999.90;999.90;;;;;;;20.27;100.00;94373.06;4921391;29;20285;-64
2022/09/02 06:30:43;;;;;;;1999.90;999.90;;;;;;;21.16;100.00;94280.81;4937803;29;20216;-64
2022/09/02 06:33:09;;;;;;;1999.90;999.90;;;;;;;21.56;100.00;94244.34;4921413;29;20198;-64
2022/09/02 06:35:37;;;;;;;1999.90;999.90;;;;;;;20.77;100.00;94107.03;4937259;29;20246;-64
2022/09/02 06:38:04;;;;;;;1999.90;999.90;;;;;;;21.06;100.00;94074.06;4920961;29;20194;-64
2022/09/02 06:40:29;;;;;;;1999.90;999.90;;;;;;;21.40;100.00;94039.47;4921246;29;20218;-64
2022/09/02 06:42:55;;;;;;;1999.90;999.90;;;;;;;20.17;100.00;93897.56;4921943;29;20197;-65
2022/09/02 06:45:23;;;;;;;1999.90;999.90;;;;;;;21.24;100.00;93895.78;4921728;29;20252;-64
2022/09/02 06:47:48;;;;;;;1999.90;999.90;;;;;;;21.77;100.00;94012.16;4921091;29;20194;-64
2022/09/02 06:50:14;;;;;;;1999.90;999.90;;;;;;;22.75;100.00;94192.47;4920533;29;20253;-64
2022/09/02 06:52:39;;;;;;;1999.90;999.90;;;;;;;22.77;100.00;94279.81;4921340;29;20193;-65
2022/09/02 06:55:05;;;;;;;1999.90;999.90;;;;;;;23.06;100.00;94786.31;4921141;29;20284;-64
2022/09/02 06:57:32;;;;;;;1999.90;999.90;;;;;;;22.91;100.00;94862.94;4921305;29;20280;-63
2022/09/02 06:59:57;;;;;;;1999.90;999.90;;;;;;;23.50;100.00;94852.66;4920822;29;20249;-65
2022/09/02 07:02:22;;;;;;;1999.90;999.90;;;;;;;22.84;100.00;94847.47;4920910;29;20210;-65
2022/09/02 07:07:34;;;;;;;1999.90;999.90;;;;;;;23.61;100.00;94914.06;4938051;29;20253;-64
2022/09/02 07:10:00;;;;;;;1999.90;999.90;;;;;;;23.99;100.00;94910.69;4921070;29;20257;-65
2022/09/02 07:12:26;;;;;;;1999.90;999.90;;;;;;;22.79;100.00;94922.63;4920954;29;20186;-64
2022/09/02 07:14:52;;;;;;;1999.90;999.90;;;;;;;23.03;100.00;94917.47;4921100;29;20182;-65
2022/09/02 07:17:20;;;;;;;1999.90;999.90;;;;;;;22.57;100.00;94922.41;4936365;29;20237;-64
2022/09/02 07:19:46;;;;;;;1999.90;999.90;;;;;;;22.81;100.00;94926.44;4920529;29;20182;-65
2022/09/02 07:22:12;;;;;;;1999.90;999.90;;;;;;;23.06;100.00;94922.06;4920932;29;20182;-65
2022/09/02 07:24:38;;;;;;;1999.90;999.90;;;;;;;22.37;100.00;94914.84;4920572;29;20232;-66
2022/09/02 07:27:04;;;;;;;1999.90;999.90;;;;;;;22.52;100.00;94909.97;4936413;29;20208;-65
2022/09/02 07:29:30;;;;;;;1999.90;999.90;;;;;;;22.99;100.00;94916.94;4920720;29;20266;-65
2022/09/02 07:31:57;;;;;;;1999.90;999.90;;;;;;;22.34;100.00;94911.03;4920546;29;20261;-65
2022/09/02 07:34:23;;;;;;;1999.90;999.90;;;;;;;22.48;100.00;94915.00;4920849;29;20185;-65
2022/09/02 07:36:49;;;;;;;1999.90;999.90;;;;;;;23.22;100.00;94932.56;4920753;29;20182;-65
2022/09/02 07:39:15;;;;;;;1999.90;999.90;;;;;;;23.77;100.00;94942.03;4920377;29;20201;-65
2022/09/02 07:41:43;;;;;;;1999.90;999.90;;;;;;;24.03;100.00;94950.28;4919955;29;20210;-67
2022/09/02 07:44:09;;;;;;;1999.90;999.90;;;;;;;23.91;100.00;95004.50;4920175;29;20269;-65
2022/09/02 07:46:35;;;;;;;1999.90;999.90;;;;;;;24.23;100.00;94986.41;4920152;29;20225;-66
2022/09/02 07:49:06;;;;;;;1999.90;999.90;;;;;;;23.41;100.00;95014.59;4920573;29;20296;-66
2022/09/02 07:51:32;;;;;;;1999.90;999.90;;;;;;;23.33;100.00;95016.28;4920139;29;20233;-66
2022/09/02 07:53:58;;;;;;;1999.90;999.90;;;;;;;22.54;100.00;94990.22;4935858;29;20189;-66
2022/09/02 07:56:23;;;;;;;1999.90;999.90;;;;;;;23.32;100.00;94984.09;4920260;29;20194;-64
2022/09/02 07:58:49;;;;;;;1999.90;999.90;;;;;;;22.11;100.00;94942.66;4920454;29;20236;-65
2022/09/02 08:01:15;;;;;;;1999.90;999.90;;;;;;;23.18;100.00;94955.09;4919795;29;20217;-65
2022/09/02 08:03:43;;;;;;;1999.90;999.90;;;;;;;24.25;100.00;95006.19;4920180;29;20209;-66
2022/09/02 08:06:10;;;;;;;1999.90;999.90;;;;;;;25.28;100.00;95057.31;4920445;29;20205;-65
2022/09/02 08:08:35;;;;;;;1999.90;999.90;;;;;;;25.66;100.00;95031.38;4935779;29;20186;-65
2022/09/02 08:11:01;;;;;;;1999.90;999.90;;;;;;;26.59;91.08;95089.25;4919934;29;20281;-65
2022/09/02 08:13:27;;;;;;;1999.90;999.90;;;;;;;26.73;89.03;95088.19;4920328;29;20189;-65
2022/09/02 08:15:53;;;;;;;1999.90;999.90;;;;;;;26.40;86.74;95143.56;4935396;29;20302;-66
2022/09/02 08:18:18;;;;;;;1999.90;999.90;;;;;;;25.68;90.84;95146.38;4935712;29;20182;-68
2022/09/02 08:20:44;;;;;;;1999.90;999.90;;;;;;;25.72;92.68;95130.09;4919689;29;20217;-66
2022/09/02 08:23:10;;;;;;;1999.90;999.90;;;;;;;24.78;93.23;95126.28;4935640;29;20190;-66
2022/09/02 08:25:36;;;;;;;1999.90;999.90;;;;;;;24.29;95.39;95118.41;4920176;29;20196;-67
2022/09/02 08:28:05;;;;;;;1999.90;999.90;;;;;;;23.19;97.86;95117.50;4919633;29;20185;-66
2022/09/02 08:30:30;;;;;;;1999.90;999.90;;;;;;;24.77;90.80;95164.63;4919446;29;20202;-66
2022/09/02 08:32:56;;;;;;;1999.90;999.90;;;;;;;26.11;82.40;95217.66;4936024;29;20184;-67
2022/09/02 08:35:22;;;;;;;1999.90;999.90;;;;;;;24.40;86.96;95219.00;4936216;29;20197;-66
2022/09/02 08:37:47;;;;;;;1999.90;999.90;;;;;;;24.04;89.51;95203.75;4919620;29;20194;-65
2022/09/02 08:40:22;;;;;;;1999.90;999.90;;;;;;;24.17;88.95;95197.75;4919790;29;20213;-66
2022/09/02 08:42:53;;;;;;;1999.90;999.90;;;;;;;23.87;89.01;95211.19;4919591;29;20189;-66
2022/09/02 08:45:29;;;;;;;1999.90;999.90;;;;;;;23.50;89.63;95209.56;4919809;29;20201;-67
2022/09/02 08:48:07;;;;;;;1999.90;999.90;;;;;;;23.16;88.70;95219.56;4919454;29;20209;-66
2022/09/02 08:50:36;;;;;;;1999.90;999.90;;;;;;;23.47;87.00;95227.28;4919464;29;20197;-66
2022/09/02 08:53:16;;;;;;;1999.90;999.90;;;;;;;24.26;82.56;95242.25;4919443;29;20232;-66
2022/09/02 08:55:48;;;;;;;1999.90;999.90;;;;;;;24.40;80.76;95253.25;4935156;29;20194;-67
2022/09/02 08:58:17;;;;;;;1999.90;999.90;;;;;;;23.20;88.38;95263.94;4919605;29;20284;-67
2022/09/02 09:00:49;;;;;;;1999.90;999.90;;;;;;;23.92;83.05;95257.13;4919230;29;20221;-67
2022/09/02 09:03:29;;;;;;;1999.90;999.90;;;;;;;24.51;79.91;95263.78;4919768;29;20258;-67
2022/09/02 09:06:07;;;;;;;1999.90;999.90;;;;;;;23.55;84.27;95281.34;4935154;29;20233;-66
2022/09/02 09:08:59;;;;;;;1999.90;999.90;;;;;;;23.99;85.10;95259.50;4935295;29;20232;-67
2022/09/02 09:11:38;;;;;;;1999.90;999.90;;;;;;;23.83;87.82;95258.09;4935416;29;20193;-66
2022/09/02 09:14:33;;;;;;;1999.90;999.90;;;;;;;23.55;84.33;95284.16;4937345;29;20245;-68
2022/09/02 09:17:07;;;;;;;1999.90;999.90;;;;;;;23.86;85.85;95264.72;4938625;29;20616;-67
2022/09/02 09:19:38;;;;;;;1999.90;999.90;;;;;;;24.05;82.01;95271.50;4922688;29;20292;-67
2022/09/02 09:22:04;;;;;;;1999.90;999.90;;;;;;;24.39;81.45;95270.50;4938140;29;20209;-68
2022/09/02 09:24:38;;;;;;;1999.90;999.90;;;;;;;23.96;84.10;95280.06;4922765;29;20201;-68
2022/09/02 09:27:13;;;;;;;1999.90;999.90;;;;;;;24.34;84.88;95263.66;4922593;29;20189;-68
2022/09/02 09:29:38;;;;;;;1999.90;999.90;;;;;;;23.88;89.13;95256.59;4938391;29;20201;-69
2022/09/02 09:32:09;;;;;;;1999.90;999.90;;;;;;;24.10;83.58;95257.59;4922502;29;20197;-68
2022/09/02 09:34:50;;;;;;;1999.90;999.90;;;;;;;23.58;85.13;95256.06;4922915;29;20241;-67
2022/09/02 09:37:47;;;;;;;1999.90;999.90;;;;;;;24.04;83.04;95253.22;4938435;29;20198;-66
2022/09/02 09:40:24;;;;;;;1999.90;999.90;;;;;;;24.75;82.00;95248.22;4933515;29;20369;-66
2022/09/02 09:42:54;;;;;;;1999.90;999.90;;;;;;;24.74;81.02;95248.72;4938657;29;20201;-67
2022/09/02 09:45:31;;;;;;;1999.90;999.90;;;;;;;25.26;79.58;95241.59;4938054;29;20221;-66
2022/09/02 09:48:15;;;;;;;1999.90;999.90;;;;;;;25.48;74.57;95255.69;4938203;29;20284;-67
2022/09/02 09:50:42;;;;;;;1999.90;999.90;;;;;;;25.21;76.72;95253.53;4937706;29;20204;-68
2022/09/02 09:53:20;;;;;;;1999.90;999.90;;;;;;;25.42;71.20;95257.69;4921751;29;20192;-67
2022/09/02 09:56:06;;;;;;;1999.90;999.90;;;;;;;25.31;71.60;95254.84;4937793;29;20280;-67
2022/09/02 09:58:44;;;;;;;1999.90;999.90;;;;;;;24.57;74.79;95245.78;4937477;29;20240;-67
2022/09/02 10:01:15;;;;;;;1999.90;999.90;;;;;;;25.06;72.96;95252.97;4938028;29;20213;-66
2022/09/02 10:04:02;;;;;;;1999.90;999.90;;;;;;;24.83;75.09;95251.28;4937483;29;20197;-67
2022/09/02 10:06:31;;;;;;;1999.90;999.90;;;;;;;25.85;71.81;95245.09;4921244;29;20232;-67
2022/09/02 10:09:04;;;;;;;1999.90;999.90;;;;;;;25.94;72.14;95253.25;4937479;29;20194;-67
2022/09/02 10:11:33;;;;;;;1999.90;999.90;;;;;;;24.41;70.78;95266.00;4921735;29;20189;-67
2022/09/02 10:14:02;;;;;;;1999.90;999.90;;;;;;;24.17;73.61;95256.38;4921578;29;20217;-67
2022/09/02 10:16:30;;;;;;;1999.90;999.90;;;;;;;24.27;71.79;95238.19;4921557;29;20185;-67
2022/09/02 10:19:35;;;;;;;1999.90;999.90;;;;;;;24.36;70.54;95274.31;4938059;29;20197;-67
2022/09/02 10:22:31;;;;;;;1999.90;999.90;;;;;;;24.44;69.04;95247.47;4937745;29;20217;-66
2022/09/02 10:25:28;;;;;;;1999.90;999.90;;;;;;;24.81;71.18;95237.06;4936277;29;20194;-67
2022/09/02 10:28:03;;;;;;;1999.90;999.90;;;;;;;24.36;71.74;95254.78;4937028;29;20186;-67
2022/09/02 10:30:31;;;;;;;1999.90;999.90;;;;;;;24.53;74.69;95244.47;4937946;29;20189;-67
2022/09/02 10:33:15;;;;;;;1999.90;999.90;;;;;;;25.74;68.13;95233.88;4921567;29;20252;-66
2022/09/02 10:35:56;;;;;;;1999.90;999.90;;;;;;;25.54;63.73;95242.50;4937380;29;20217;-67
2022/09/02 10:38:36;;;;;;;1999.90;999.90;;;;;;;25.45;62.18;95244.75;4937516;29;20201;-67
2022/09/02 10:41:30;;;;;;;1999.90;999.90;;;;;;;26.09;59.92;95241.84;4921201;29;20226;-67
2022/09/02 10:44:17;;;;;;;1999.90;999.90;;;;;;;26.24;60.98;95243.13;4937328;29;20202;-66
2022/09/02 10:46:48;;;;;;;1999.90;999.90;;;;;;;25.35;65.31;95235.81;4937600;29;20201;-66
2022/09/02 10:49:51;;;;;;;1999.90;999.90;;;;;;;25.31;63.46;95232.47;4936904;29;20205;-67
2022/09/02 10:52:19;;;;;;;1999.90;999.90;;;;;;;25.23;60.65;95237.00;4936955;29;20193;-66
2022/09/02 10:55:05;;;;;;;1999.90;999.90;;;;;;;24.88;65.67;95228.22;4937056;29;20182;-66
2022/09/02 10:57:46;;;;;;;1999.90;999.90;;;;;;;25.45;58.84;95223.13;4936706;29;20200;-66
2022/09/02 11:00:19;;;;;;;1999.90;999.90;;;;;;;25.75;59.75;95224.22;4937107;29;20214;-66
2022/09/02 11:03:08;;;;;;;1999.90;999.90;;;;;;;26.15;55.68;95223.75;4936986;29;20224;-66
2022/09/02 11:05:43;;;;;;;1999.90;999.90;;;;;;;26.38;56.75;95230.91;4913560;29;20208;-67
2022/09/02 11:08:13;;;;;;;1999.90;999.90;;;;;;;24.93;57.69;95221.88;4921061;29;20174;-67